createdAt,value
2016-09-07T00:00:41.743Z,49.19
2016-09-07T00:01:41.754Z,48.9
2016-09-07T00:02:41.447Z,49.29
2016-09-07T00:03:41.815Z,49.1
2016-09-07T00:04:41.775Z,49.29
2016-09-07T00:05:41.477Z,49
2016-09-07T00:06:41.838Z,49.19
2016-09-07T00:07:41.482Z,48.71
2016-09-07T00:08:41.488Z,49
2016-09-07T00:09:41.811Z,49.29
2016-09-07T00:10:42.468Z,48.9
2016-09-07T00:11:41.517Z,49
2016-09-07T00:12:41.526Z,48.81
2016-09-07T00:13:41.530Z,49
2016-09-07T00:14:42.652Z,49.39
2016-09-07T00:15:41.545Z,49.29
2016-09-07T00:16:41.865Z,49.29
2016-09-07T00:17:41.559Z,48.81
2016-09-07T00:18:41.878Z,49
2016-09-07T00:19:41.886Z,49
2016-09-07T00:20:41.893Z,48.61
2016-09-07T00:21:41.902Z,48.61
2016-09-07T00:22:41.910Z,48.9
2016-09-07T00:23:41.916Z,49.29
2016-09-07T00:24:41.924Z,48.61
2016-09-07T00:25:42.067Z,48.61
2016-09-07T00:26:41.625Z,49
2016-09-07T00:27:41.945Z,48.9
2016-09-07T00:28:41.952Z,48.61
2016-09-07T00:29:41.961Z,48.9
2016-09-07T00:30:41.965Z,48.61
2016-09-07T00:31:41.973Z,49.29
2016-09-07T00:32:41.982Z,48.81
2016-09-07T00:33:41.675Z,48.9
2016-09-07T00:34:41.995Z,49.1
2016-09-07T00:35:41.689Z,49.29
2016-09-07T00:36:42.498Z,49.19
2016-09-07T00:37:41.704Z,49.1
2016-09-07T00:38:41.709Z,48.97
2016-09-07T00:39:41.719Z,48.9
2016-09-07T00:40:42.125Z,49.27
2016-09-07T00:41:42.045Z,49.29
2016-09-07T00:42:41.739Z,49.39
2016-09-07T00:43:42.058Z,49.17
2016-09-07T00:44:42.067Z,49.19
2016-09-07T00:45:42.072Z,49.29
2016-09-07T00:46:42.079Z,48.52
2016-09-07T00:47:41.875Z,49.39
2016-09-07T00:48:42.096Z,49.39
2016-09-07T00:49:42.099Z,49.49
2016-09-07T00:50:42.115Z,49.39
2016-09-07T00:51:42.117Z,49
2016-09-07T00:52:41.811Z,49.19
2016-09-07T00:53:42.132Z,49.19
2016-09-07T00:54:41.826Z,48.52
2016-09-07T00:55:41.835Z,49
2016-09-07T00:56:43.155Z,48.42
2016-09-07T00:57:42.158Z,48.9
2016-09-07T00:58:42.368Z,49.19
2016-09-07T00:59:41.862Z,49
2016-09-07T01:00:42.180Z,48.79
2016-09-07T01:01:41.879Z,48.88
2016-09-07T01:02:42.195Z,48.59
2016-09-07T01:03:42.203Z,48.42
2016-09-07T01:04:41.899Z,48.88
2016-09-07T01:05:42.217Z,48.81
2016-09-07T01:06:42.225Z,49
2016-09-07T01:07:42.281Z,48.81
2016-09-07T01:08:42.241Z,48.9
2016-09-07T01:09:41.934Z,48.81
2016-09-07T01:10:42.254Z,48.61
2016-09-07T01:11:43.346Z,48.32
2016-09-07T01:12:41.954Z,48.81
2016-09-07T01:13:41.964Z,49
2016-09-07T01:14:41.970Z,48.9
2016-09-07T01:15:42.290Z,48.61
2016-09-07T01:16:42.298Z,48.39
2016-09-07T01:17:41.992Z,48.61
2016-09-07T01:18:42.312Z,48.71
2016-09-07T01:19:42.322Z,48.59
2016-09-07T01:20:42.115Z,48.59
2016-09-07T01:21:42.333Z,48.79
2016-09-07T01:22:42.029Z,48.22
2016-09-07T01:23:42.353Z,48.3
2016-09-07T01:24:42.358Z,48.61
2016-09-07T01:25:42.051Z,48.52
2016-09-07T01:26:42.369Z,48.71
2016-09-07T01:27:42.378Z,48.9
2016-09-07T01:28:42.076Z,48.71
2016-09-07T01:29:42.083Z,48.61
2016-09-07T01:30:42.090Z,48.32
2016-09-07T01:31:42.098Z,48.59
2016-09-07T01:32:42.100Z,48.49
2016-09-07T01:33:42.958Z,48.3
2016-09-07T01:34:42.113Z,48.59
2016-09-07T01:35:42.436Z,48.59
2016-09-07T01:36:42.125Z,48.2
2016-09-07T01:37:42.449Z,48.59
2016-09-07T01:38:42.141Z,48.39
2016-09-07T01:39:42.464Z,48.39
2016-09-07T01:40:42.158Z,48.39
2016-09-07T01:41:42.164Z,48.39
2016-09-07T01:42:42.484Z,48.49
2016-09-07T01:43:42.497Z,48.49
2016-09-07T01:44:42.999Z,48.39
2016-09-07T01:45:42.507Z,48.22
2016-09-07T01:46:42.515Z,48.01
2016-09-07T01:47:42.209Z,48.3
2016-09-07T01:48:42.216Z,48.42
2016-09-07T01:49:42.534Z,48.52
2016-09-07T01:50:42.545Z,48.39
2016-09-07T01:51:42.551Z,48.52
2016-09-07T01:52:42.557Z,48.2
2016-09-07T01:53:42.252Z,47.94
2016-09-07T01:54:42.259Z,48.2
2016-09-07T01:55:42.319Z,48.42
2016-09-07T01:56:42.287Z,48.2
2016-09-07T01:57:42.282Z,48.01
2016-09-07T01:58:42.603Z,48.69
2016-09-07T01:59:42.606Z,48.42
2016-09-07T02:00:42.616Z,48.3
2016-09-07T02:01:42.312Z,47.81
2016-09-07T02:02:42.319Z,48.42
2016-09-07T02:03:42.325Z,48.39
2016-09-07T02:04:42.646Z,48.3
2016-09-07T02:05:42.341Z,48.52
2016-09-07T02:06:42.661Z,47.91
2016-09-07T02:07:42.352Z,47.62
2016-09-07T02:08:43.770Z,48.01
2016-09-07T02:09:42.368Z,48.2
2016-09-07T02:10:42.692Z,47.84
2016-09-07T02:11:42.395Z,48.22
2016-09-07T02:12:42.391Z,48.22
2016-09-07T02:13:42.760Z,48.22
2016-09-07T02:14:42.718Z,48.2
2016-09-07T02:15:42.728Z,48.2
2016-09-07T02:16:42.732Z,48.2
2016-09-07T02:17:42.740Z,48.3
2016-09-07T02:18:42.483Z,48.11
2016-09-07T02:19:43.557Z,47.81
2016-09-07T02:20:42.448Z,48.2
2016-09-07T02:21:42.455Z,48.2
2016-09-07T02:22:42.779Z,48.3
2016-09-07T02:23:42.469Z,48.3
2016-09-07T02:24:42.789Z,48.01
2016-09-07T02:25:42.483Z,48.2
2016-09-07T02:26:42.804Z,48.49
2016-09-07T02:27:42.812Z,47.72
2016-09-07T02:28:42.818Z,48.49
2016-09-07T02:29:42.512Z,47.91
2016-09-07T02:30:43.382Z,47.91
2016-09-07T02:31:42.527Z,48.01
2016-09-07T02:32:42.534Z,47.52
2016-09-07T02:33:42.542Z,47.62
2016-09-07T02:34:42.863Z,47.24
2016-09-07T02:35:42.555Z,47.62
2016-09-07T02:36:42.876Z,47.94
2016-09-07T02:37:42.569Z,47.81
2016-09-07T02:38:42.889Z,48.2
2016-09-07T02:39:42.896Z,48.2
2016-09-07T02:40:42.591Z,48.2
2016-09-07T02:41:42.901Z,47.52
2016-09-07T02:42:42.918Z,47.14
2016-09-07T02:43:42.936Z,48.01
2016-09-07T02:44:42.935Z,47.72
2016-09-07T02:45:42.627Z,47.14
2016-09-07T02:46:42.947Z,47.43
2016-09-07T02:47:42.641Z,47.43
2016-09-07T02:48:42.959Z,47.14
2016-09-07T02:49:42.656Z,47.14
2016-09-07T02:50:42.676Z,47.33
2016-09-07T02:51:42.671Z,47.14
2016-09-07T02:52:43.124Z,46.94
2016-09-07T02:53:42.997Z,47.14
2016-09-07T02:54:43.005Z,47.14
2016-09-07T02:55:43.014Z,46.84
2016-09-07T02:56:43.019Z,46.66
2016-09-07T02:57:42.710Z,46.75
2016-09-07T02:58:43.035Z,46.84
2016-09-07T02:59:42.727Z,46.84
2016-09-07T03:00:42.733Z,46.66
2016-09-07T03:01:43.056Z,46.66
2016-09-07T03:02:43.062Z,46.84
2016-09-07T03:03:42.857Z,46.84
2016-09-07T03:04:42.762Z,46.94
2016-09-07T03:05:42.774Z,46.84
2016-09-07T03:06:42.780Z,46.66
2016-09-07T03:07:43.098Z,46.75
2016-09-07T03:08:43.106Z,46.66
2016-09-07T03:09:42.800Z,46.66
2016-09-07T03:10:43.121Z,46.84
2016-09-07T03:11:43.125Z,46.84
2016-09-07T03:12:42.824Z,46.94
2016-09-07T03:13:43.143Z,46.75
2016-09-07T03:14:43.147Z,46.94
2016-09-07T03:15:43.157Z,46.84
2016-09-07T03:16:43.164Z,46.94
2016-09-07T03:17:43.172Z,46.84
2016-09-07T03:18:43.177Z,46.94
2016-09-07T03:19:43.238Z,46.75
2016-09-07T03:20:43.192Z,46.75
2016-09-07T03:21:43.198Z,46.94
2016-09-07T03:22:42.895Z,46.66
2016-09-07T03:23:43.215Z,46.75
2016-09-07T03:24:42.912Z,46.84
2016-09-07T03:25:43.227Z,46.75
2016-09-07T03:26:42.925Z,47.24
2016-09-07T03:27:44.042Z,46.66
2016-09-07T03:28:43.249Z,46.84
2016-09-07T03:29:42.945Z,46.84
2016-09-07T03:30:42.964Z,46.84
2016-09-07T03:31:43.273Z,46.75
2016-09-07T03:32:42.964Z,46.94
2016-09-07T03:33:43.288Z,46.94
2016-09-07T03:34:43.292Z,46.66
2016-09-07T03:35:43.301Z,46.75
2016-09-07T03:36:43.315Z,46.94
2016-09-07T03:37:43.314Z,46.94
2016-09-07T03:38:43.771Z,46.75
2016-09-07T03:39:43.329Z,46.75
2016-09-07T03:40:43.334Z,46.94
2016-09-07T03:41:43.342Z,46.94
2016-09-07T03:42:43.350Z,46.84
2016-09-07T03:43:43.353Z,46.94
2016-09-07T03:44:43.050Z,47.04
2016-09-07T03:45:43.369Z,46.84
2016-09-07T03:46:43.378Z,47.14
2016-09-07T03:47:43.383Z,47.04
2016-09-07T03:48:43.129Z,46.94
2016-09-07T03:49:43.599Z,46.94
2016-09-07T03:50:43.095Z,46.84
2016-09-07T03:51:44.388Z,46.94
2016-09-07T03:52:43.420Z,46.84
2016-09-07T03:53:43.114Z,46.84
2016-09-07T03:54:43.123Z,46.84
2016-09-07T03:55:43.443Z,46.84
2016-09-07T03:56:43.450Z,46.75
2016-09-07T03:57:43.465Z,46.84
2016-09-07T03:58:43.464Z,46.84
2016-09-07T03:59:43.470Z,46.84
2016-09-07T04:00:43.477Z,46.84
2016-09-07T04:01:43.176Z,46.84
2016-09-07T04:02:43.179Z,46.75
2016-09-07T04:03:43.188Z,46.84
2016-09-07T04:04:43.507Z,46.84
2016-09-07T04:05:43.514Z,46.75
2016-09-07T04:06:43.519Z,46.84
2016-09-07T04:07:43.530Z,46.84
2016-09-07T04:08:43.222Z,46.84
2016-09-07T04:09:43.543Z,47.04
2016-09-07T04:10:43.550Z,46.75
2016-09-07T04:11:43.247Z,47.14
2016-09-07T04:12:43.567Z,47.24
2016-09-07T04:13:44.217Z,47.14
2016-09-07T04:14:43.579Z,47.04
2016-09-07T04:15:43.373Z,46.94
2016-09-07T04:16:43.593Z,47.04
2016-09-07T04:17:43.598Z,47.14
2016-09-07T04:18:43.295Z,47.14
2016-09-07T04:19:43.667Z,46.94
2016-09-07T04:20:43.361Z,47.24
2016-09-07T04:21:43.318Z,46.94
2016-09-07T04:22:43.325Z,46.94
2016-09-07T04:23:43.333Z,46.94
2016-09-07T04:24:44.553Z,46.84
2016-09-07T04:25:43.660Z,46.94
2016-09-07T04:26:43.666Z,46.94
2016-09-07T04:27:43.674Z,46.94
2016-09-07T04:28:43.680Z,46.94
2016-09-07T04:29:43.381Z,47.04
2016-09-07T04:30:43.693Z,47.33
2016-09-07T04:31:43.706Z,47.52
2016-09-07T04:32:43.395Z,47.62
2016-09-07T04:33:43.716Z,47.52
2016-09-07T04:34:43.417Z,47.52
2016-09-07T04:35:44.130Z,47.31
2016-09-07T04:36:43.423Z,47.41
2016-09-07T04:37:43.435Z,47.31
2016-09-07T04:38:43.750Z,47.52
2016-09-07T04:39:43.445Z,47.52
2016-09-07T04:40:43.766Z,47.33
2016-09-07T04:41:43.458Z,47.69
2016-09-07T04:42:43.779Z,47.62
2016-09-07T04:43:43.787Z,47.43
2016-09-07T04:44:43.484Z,47.31
2016-09-07T04:45:43.802Z,47.5
2016-09-07T04:46:44.058Z,47.69
2016-09-07T04:47:43.502Z,47.72
2016-09-07T04:48:43.511Z,47.52
2016-09-07T04:49:43.517Z,47.91
2016-09-07T04:50:43.572Z,47.62
2016-09-07T04:51:43.530Z,47.52
2016-09-07T04:52:43.536Z,47.33
2016-09-07T04:53:43.854Z,47.99
2016-09-07T04:54:43.863Z,48.2
2016-09-07T04:55:43.871Z,48.11
2016-09-07T04:56:43.877Z,47.81
2016-09-07T04:57:43.886Z,47.41
2016-09-07T04:58:43.894Z,47.41
2016-09-07T04:59:45.003Z,48.11
2016-09-07T05:00:43.908Z,48.11
2016-09-07T05:01:43.914Z,47.99
2016-09-07T05:02:43.609Z,47.52
2016-09-07T05:03:43.616Z,47.69
2016-09-07T05:04:43.936Z,47.5
2016-09-07T05:05:44.043Z,48.11
2016-09-07T05:06:43.951Z,48.2
2016-09-07T05:07:43.956Z,48.2
2016-09-07T05:08:43.965Z,48.08
2016-09-07T05:09:43.658Z,47.91
2016-09-07T05:10:44.928Z,47.72
2016-09-07T05:11:43.988Z,47.62
2016-09-07T05:12:43.679Z,48.01
2016-09-07T05:13:44.002Z,47.6
2016-09-07T05:14:43.694Z,47.79
2016-09-07T05:15:44.013Z,47.43
2016-09-07T05:16:44.021Z,47.62
2016-09-07T05:17:44.031Z,47.72
2016-09-07T05:18:43.724Z,47.43
2016-09-07T05:19:44.044Z,47.62
2016-09-07T05:20:44.049Z,47.62
2016-09-07T05:21:44.510Z,47.5
2016-09-07T05:22:43.801Z,47.72
2016-09-07T05:23:44.070Z,47.72
2016-09-07T05:24:44.081Z,47.43
2016-09-07T05:25:44.135Z,47.52
2016-09-07T05:26:43.781Z,47.62
2016-09-07T05:27:43.788Z,47.69
2016-09-07T05:28:44.108Z,47.62
2016-09-07T05:29:43.803Z,47.6
2016-09-07T05:30:43.810Z,47.41
2016-09-07T05:31:43.818Z,47.21
2016-09-07T05:32:44.426Z,47.62
2016-09-07T05:33:44.144Z,47.69
2016-09-07T05:34:43.837Z,47.6
2016-09-07T05:35:43.858Z,47.72
2016-09-07T05:36:43.853Z,47.52
2016-09-07T05:37:44.170Z,47.6
2016-09-07T05:38:44.180Z,47.52
2016-09-07T05:39:43.874Z,47.5
2016-09-07T05:40:43.878Z,47.52
2016-09-07T05:41:44.201Z,47.6
2016-09-07T05:42:44.206Z,47.72
2016-09-07T05:43:43.903Z,47.43
2016-09-07T05:44:43.910Z,47.79
2016-09-07T05:45:45.283Z,47.6
2016-09-07T05:46:43.923Z,47.99
2016-09-07T05:47:44.495Z,47.91
2016-09-07T05:48:44.249Z,47.81
2016-09-07T05:49:43.945Z,47.89
2016-09-07T05:50:44.313Z,47.5
2016-09-07T05:51:43.956Z,47.69
2016-09-07T05:52:44.015Z,47.72
2016-09-07T05:53:44.285Z,47.33
2016-09-07T05:54:44.293Z,47.72
2016-09-07T05:55:44.300Z,47.62
2016-09-07T05:56:43.995Z,47.81
2016-09-07T05:57:44.005Z,47.72
2016-09-07T05:58:44.214Z,48.11
2016-09-07T05:59:44.016Z,48.01
2016-09-07T06:00:44.336Z,47.81
2016-09-07T06:01:44.344Z,47.72
2016-09-07T06:02:44.088Z,47.52
2016-09-07T06:03:44.358Z,47.72
2016-09-07T06:04:44.372Z,47.14
2016-09-07T06:05:44.373Z,47.52
2016-09-07T06:06:44.382Z,47.62
2016-09-07T06:07:45.438Z,47.52
2016-09-07T06:08:44.133Z,47.62
2016-09-07T06:09:44.240Z,47.62
2016-09-07T06:10:44.409Z,47.62
2016-09-07T06:11:44.417Z,47.72
2016-09-07T06:12:44.424Z,48.11
2016-09-07T06:13:44.119Z,48.11
2016-09-07T06:14:44.440Z,47.52
2016-09-07T06:15:44.497Z,47.52
2016-09-07T06:16:44.454Z,47.62
2016-09-07T06:17:44.146Z,47.72
2016-09-07T06:18:45.469Z,47.43
2016-09-07T06:19:44.477Z,47.52
2016-09-07T06:20:44.171Z,47.52
2016-09-07T06:21:44.179Z,47.52
2016-09-07T06:22:44.498Z,47.14
2016-09-07T06:23:44.504Z,46.94
2016-09-07T06:24:44.511Z,47.36
2016-09-07T06:25:44.207Z,47.24
2016-09-07T06:26:44.529Z,47.14
2016-09-07T06:27:44.223Z,47.06
2016-09-07T06:28:44.541Z,47.14
2016-09-07T06:29:44.936Z,47.06
2016-09-07T06:30:44.256Z,47.36
2016-09-07T06:31:44.252Z,46.87
2016-09-07T06:32:44.260Z,46.87
2016-09-07T06:33:45.694Z,46.77
2016-09-07T06:34:44.274Z,46.97
2016-09-07T06:35:44.594Z,47.16
2016-09-07T06:36:44.601Z,47.36
2016-09-07T06:37:44.611Z,46.97
2016-09-07T06:38:44.620Z,46.48
2016-09-07T06:39:44.624Z,46.39
2016-09-07T06:40:44.324Z,46.22
2016-09-07T06:41:44.642Z,46.51
2016-09-07T06:42:44.336Z,46.22
2016-09-07T06:43:44.655Z,45.64
2016-09-07T06:44:45.775Z,45.73
2016-09-07T06:45:44.681Z,45.73
2016-09-07T06:46:44.370Z,45.64
2016-09-07T06:47:44.690Z,45.64
2016-09-07T06:48:44.699Z,45.44
2016-09-07T06:49:44.711Z,45.92
2016-09-07T06:50:44.717Z,46.02
2016-09-07T06:51:44.724Z,46.48
2016-09-07T06:52:44.785Z,46.29
2016-09-07T06:53:44.743Z,46.22
2016-09-07T06:54:44.751Z,46.48
2016-09-07T06:55:45.599Z,46.39
2016-09-07T06:56:44.768Z,46.48
2016-09-07T06:57:44.773Z,46.6
2016-09-07T06:58:44.479Z,46.48
2016-09-07T06:59:44.476Z,46.29
2016-09-07T07:00:44.849Z,46.41
2016-09-07T07:01:44.807Z,46.39
2016-09-07T07:02:44.504Z,46.19
2016-09-07T07:03:44.823Z,46.39
2016-09-07T07:04:44.831Z,46.48
2016-09-07T07:05:44.840Z,46.39
2016-09-07T07:06:44.836Z,46.19
2016-09-07T07:07:44.544Z,46.39
2016-09-07T07:08:44.862Z,46.58
2016-09-07T07:09:44.563Z,46.39
2016-09-07T07:10:44.878Z,46.48
2016-09-07T07:11:44.887Z,46.48
2016-09-07T07:12:44.894Z,46.48
2016-09-07T07:13:44.588Z,46.58
2016-09-07T07:14:44.653Z,46.58
2016-09-07T07:15:44.663Z,46.39
2016-09-07T07:16:44.613Z,46.77
2016-09-07T07:17:45.321Z,47.16
2016-09-07T07:18:45.043Z,47.16
2016-09-07T07:19:44.946Z,47.06
2016-09-07T07:20:44.958Z,47.16
2016-09-07T07:21:44.654Z,46.97
2016-09-07T07:22:44.972Z,47.06
2016-09-07T07:23:44.978Z,46.97
2016-09-07T07:24:44.986Z,47.16
2016-09-07T07:25:44.683Z,47.16
2016-09-07T07:26:45.002Z,46.97
2016-09-07T07:27:45.008Z,46.97
2016-09-07T07:28:44.755Z,47.26
2016-09-07T07:29:44.715Z,46.58
2016-09-07T07:30:45.881Z,46.39
2016-09-07T07:31:44.726Z,47.16
2016-09-07T07:32:45.100Z,47.16
2016-09-07T07:33:45.054Z,46.87
2016-09-07T07:34:44.751Z,46.87
2016-09-07T07:35:45.072Z,46.97
2016-09-07T07:36:45.078Z,46.97
2016-09-07T07:37:45.137Z,47.16
2016-09-07T07:38:44.782Z,47.16
2016-09-07T07:39:45.101Z,46.87
2016-09-07T07:40:44.797Z,46.77
2016-09-07T07:41:46.227Z,47.36
2016-09-07T07:42:44.813Z,47.16
2016-09-07T07:43:45.131Z,47.26
2016-09-07T07:44:45.139Z,47.26
2016-09-07T07:45:45.147Z,47.36
2016-09-07T07:46:45.214Z,46.97
2016-09-07T07:47:45.160Z,46.97
2016-09-07T07:48:44.862Z,46.97
2016-09-07T07:49:44.867Z,46.97
2016-09-07T07:50:45.181Z,46.87
2016-09-07T07:51:45.191Z,46.77
2016-09-07T07:52:46.149Z,46.97
2016-09-07T07:53:45.207Z,47.16
2016-09-07T07:54:44.901Z,46.67
2016-09-07T07:55:44.909Z,46.87
2016-09-07T07:56:45.227Z,47.26
2016-09-07T07:57:45.233Z,46.77
2016-09-07T07:58:44.931Z,46.87
2016-09-07T07:59:45.250Z,46.97
2016-09-07T08:00:44.944Z,46.77
2016-09-07T08:01:44.951Z,46.87
2016-09-07T08:02:45.273Z,47.06
2016-09-07T08:03:45.930Z,46.87
2016-09-07T08:04:45.289Z,46.87
2016-09-07T08:05:44.982Z,46.97
2016-09-07T08:06:45.302Z,47.36
2016-09-07T08:07:45.001Z,47.06
2016-09-07T08:08:45.474Z,46.39
2016-09-07T08:09:45.013Z,46.97
2016-09-07T08:10:45.334Z,47.36
2016-09-07T08:11:45.890Z,46.97
2016-09-07T08:12:45.087Z,46.58
2016-09-07T08:13:45.405Z,46.67
2016-09-07T08:14:45.863Z,46.58
2016-09-07T08:15:45.370Z,46.39
2016-09-07T08:16:45.066Z,46.58
2016-09-07T08:17:45.073Z,46.39
2016-09-07T08:18:45.395Z,46.29
2016-09-07T08:19:45.091Z,46.67
2016-09-07T08:20:45.408Z,46.67
2016-09-07T08:21:45.415Z,46.58
2016-09-07T08:22:45.110Z,46.77
2016-09-07T08:23:45.122Z,46.67
2016-09-07T08:24:45.440Z,46.58
2016-09-07T08:25:45.585Z,46.39
2016-09-07T08:26:45.140Z,46.09
2016-09-07T08:27:45.460Z,45.92
2016-09-07T08:28:45.468Z,45.07
2016-09-07T08:29:45.476Z,44.4
2016-09-07T08:30:45.488Z,44.2
2016-09-07T08:31:45.494Z,43.93
2016-09-07T08:32:45.503Z,44.13
2016-09-07T08:33:45.510Z,44.42
2016-09-07T08:34:45.259Z,43.64
2016-09-07T08:35:45.219Z,43.57
2016-09-07T08:36:45.224Z,43.35
2016-09-07T08:37:45.548Z,43.26
2016-09-07T08:38:46.372Z,43.47
2016-09-07T08:39:45.565Z,43.27
2016-09-07T08:40:45.584Z,43.37
2016-09-07T08:41:45.583Z,43.18
2016-09-07T08:42:45.281Z,43.37
2016-09-07T08:43:45.290Z,43.57
2016-09-07T08:44:45.298Z,43.37
2016-09-07T08:45:45.623Z,42.99
2016-09-07T08:46:45.628Z,43.18
2016-09-07T08:47:45.375Z,43.27
2016-09-07T08:48:45.696Z,43.18
2016-09-07T08:49:46.494Z,43.08
2016-09-07T08:50:45.351Z,42.89
2016-09-07T08:51:45.358Z,43.18
2016-09-07T08:52:45.678Z,43.08
2016-09-07T08:53:45.375Z,43.18
2016-09-07T08:54:45.695Z,43.08
2016-09-07T08:55:46.560Z,43.57
2016-09-07T08:56:45.402Z,43.84
2016-09-07T08:57:45.720Z,43.93
2016-09-07T08:58:45.413Z,44.42
2016-09-07T08:59:45.426Z,44.32
2016-09-07T09:00:46.191Z,44.81
2016-09-07T09:01:45.441Z,45.07
2016-09-07T09:02:45.762Z,45.27
2016-09-07T09:03:45.769Z,45.27
2016-09-07T09:04:45.778Z,45.07
2016-09-07T09:05:45.525Z,45.17
2016-09-07T09:06:45.895Z,45.17
2016-09-07T09:07:45.854Z,45.47
2016-09-07T09:08:45.600Z,45.07
2016-09-07T09:09:45.610Z,45.56
2016-09-07T09:10:45.516Z,44.88
2016-09-07T09:11:46.225Z,44.88
2016-09-07T09:12:45.844Z,45.27
2016-09-07T09:13:45.592Z,45.07
2016-09-07T09:14:45.961Z,45.17
2016-09-07T09:15:45.564Z,44.68
2016-09-07T09:16:45.566Z,45.27
2016-09-07T09:17:45.884Z,45.17
2016-09-07T09:18:45.582Z,45.17
2016-09-07T09:19:45.591Z,45.07
2016-09-07T09:20:45.595Z,44.88
2016-09-07T09:21:45.919Z,44.98
2016-09-07T09:22:45.662Z,45.27
2016-09-07T09:23:45.935Z,44.98
2016-09-07T09:24:46.874Z,44.59
2016-09-07T09:25:45.953Z,45.07
2016-09-07T09:26:45.648Z,44.98
2016-09-07T09:27:45.658Z,45.07
2016-09-07T09:28:45.977Z,44.68
2016-09-07T09:29:45.671Z,44.78
2016-09-07T09:30:45.992Z,44.88
2016-09-07T09:31:45.697Z,44.9
2016-09-07T09:32:46.008Z,44.78
2016-09-07T09:33:46.116Z,45
2016-09-07T09:34:46.023Z,44.68
2016-09-07T09:35:46.033Z,44.68
2016-09-07T09:36:46.040Z,44.78
2016-09-07T09:37:45.734Z,44.88
2016-09-07T09:38:46.055Z,44.68
2016-09-07T09:39:45.802Z,44.78
2016-09-07T09:40:45.759Z,44.68
2016-09-07T09:41:45.767Z,44.68
2016-09-07T09:42:46.090Z,44.98
2016-09-07T09:43:45.782Z,44.68
2016-09-07T09:44:45.799Z,44.88
2016-09-07T09:45:46.112Z,44.68
2016-09-07T09:46:46.919Z,44.78
2016-09-07T09:47:45.816Z,44.88
2016-09-07T09:48:46.241Z,44.88
2016-09-07T09:49:46.143Z,44.98
2016-09-07T09:50:46.155Z,44.98
2016-09-07T09:51:46.162Z,45.07
2016-09-07T09:52:46.169Z,44.9
2016-09-07T09:53:46.179Z,45.27
2016-09-07T09:54:45.873Z,45.29
2016-09-07T09:55:46.196Z,45.75
2016-09-07T09:56:46.200Z,45.17
2016-09-07T09:57:45.904Z,45
2016-09-07T09:58:45.910Z,45
2016-09-07T09:59:46.225Z,45.2
2016-09-07T10:00:45.921Z,45.68
2016-09-07T10:01:45.979Z,45
2016-09-07T10:02:45.939Z,45.2
2016-09-07T10:03:46.256Z,45.29
2016-09-07T10:04:45.952Z,45.29
2016-09-07T10:05:45.963Z,45.1
2016-09-07T10:06:46.283Z,44.9
2016-09-07T10:07:45.978Z,45.1
2016-09-07T10:08:46.997Z,45.58
2016-09-07T10:09:45.994Z,45.2
2016-09-07T10:10:46.005Z,44.9
2016-09-07T10:11:46.371Z,44.9
2016-09-07T10:12:46.016Z,44.9
2016-09-07T10:13:46.349Z,45.39
2016-09-07T10:14:46.033Z,45.29
2016-09-07T10:15:46.040Z,45.48
2016-09-07T10:16:46.361Z,45.1
2016-09-07T10:17:46.058Z,45.29
2016-09-07T10:18:46.376Z,45.2
2016-09-07T10:19:46.976Z,45.1
2016-09-07T10:20:46.395Z,45.1
2016-09-07T10:21:46.453Z,45.2
2016-09-07T10:22:46.411Z,45.2
2016-09-07T10:23:46.418Z,45.39
2016-09-07T10:24:46.115Z,45.1
2016-09-07T10:25:46.434Z,45.1
2016-09-07T10:26:46.128Z,45.2
2016-09-07T10:27:46.138Z,44.51
2016-09-07T10:28:46.457Z,44.9
2016-09-07T10:29:46.153Z,43.54
2016-09-07T10:30:46.611Z,43.74
2016-09-07T10:31:46.170Z,44.32
2016-09-07T10:32:46.489Z,44.03
2016-09-07T10:33:46.181Z,44.13
2016-09-07T10:34:47.152Z,43.54
2016-09-07T10:35:46.514Z,44.32
2016-09-07T10:36:46.517Z,43.82
2016-09-07T10:37:46.214Z,43.93
2016-09-07T10:38:46.535Z,43.45
2016-09-07T10:39:46.541Z,44.23
2016-09-07T10:40:46.566Z,44.03
2016-09-07T10:41:46.562Z,43.64
2016-09-07T10:42:46.257Z,44.23
2016-09-07T10:43:46.266Z,44.03
2016-09-07T10:44:46.641Z,44.1
2016-09-07T10:45:46.587Z,44.03
2016-09-07T10:46:46.599Z,44.1
2016-09-07T10:47:46.296Z,43.33
2016-09-07T10:48:46.615Z,43.93
2016-09-07T10:49:46.311Z,43.54
2016-09-07T10:50:46.320Z,43.26
2016-09-07T10:51:46.646Z,43.45
2016-09-07T10:52:46.650Z,43.04
2016-09-07T10:53:46.346Z,43.16
2016-09-07T10:54:47.793Z,42.96
2016-09-07T10:55:46.361Z,42.86
2016-09-07T10:56:46.818Z,42.67
2016-09-07T10:57:46.737Z,42.48
2016-09-07T10:58:46.482Z,42.77
2016-09-07T10:59:46.703Z,42.48
2016-09-07T11:00:47.113Z,43.26
2016-09-07T11:01:46.720Z,42.86
2016-09-07T11:02:46.417Z,43.35
2016-09-07T11:03:46.734Z,43.04
2016-09-07T11:04:46.752Z,42.94
2016-09-07T11:05:46.438Z,42.65
2016-09-07T11:06:46.446Z,42.55
2016-09-07T11:07:47.027Z,43.45
2016-09-07T11:08:46.460Z,43.06
2016-09-07T11:09:46.519Z,42.86
2016-09-07T11:10:46.477Z,42.57
2016-09-07T11:11:46.802Z,42.48
2016-09-07T11:12:46.495Z,42.19
2016-09-07T11:13:46.501Z,42.86
2016-09-07T11:14:46.511Z,42.86
2016-09-07T11:15:46.517Z,42.57
2016-09-07T11:16:47.962Z,41.7
2016-09-07T11:17:46.849Z,41.99
2016-09-07T11:18:46.894Z,42.77
2016-09-07T11:19:46.858Z,42.38
2016-09-07T11:20:46.559Z,42.48
2016-09-07T11:21:47.368Z,42.67
2016-09-07T11:22:46.937Z,42.48
2016-09-07T11:23:46.579Z,42.48
2016-09-07T11:24:46.638Z,42.57
2016-09-07T11:25:46.910Z,42.29
2016-09-07T11:26:46.604Z,41.31
2016-09-07T11:27:46.940Z,41.31
2016-09-07T11:28:46.620Z,41.22
2016-09-07T11:29:46.779Z,41.51
2016-09-07T11:30:46.947Z,41.31
2016-09-07T11:31:47.997Z,41.51
2016-09-07T11:32:46.962Z,41.51
2016-09-07T11:33:46.658Z,41.51
2016-09-07T11:34:46.666Z,41.7
2016-09-07T11:35:46.985Z,41.12
2016-09-07T11:36:46.679Z,41.8
2016-09-07T11:37:46.765Z,41.41
2016-09-07T11:38:46.748Z,41.22
2016-09-07T11:39:47.015Z,41.31
2016-09-07T11:40:47.134Z,41.61
2016-09-07T11:41:47.032Z,41.22
2016-09-07T11:42:47.041Z,40.92
2016-09-07T11:43:47.100Z,41.22
2016-09-07T11:44:47.057Z,41.41
2016-09-07T11:45:46.755Z,41.22
2016-09-07T11:46:46.758Z,41.8
2016-09-07T11:47:47.079Z,41.12
2016-09-07T11:48:47.137Z,41.8
2016-09-07T11:49:47.145Z,41.12
2016-09-07T11:50:47.106Z,41.41
2016-09-07T11:51:47.167Z,41.88
2016-09-07T11:52:46.808Z,41.41
2016-09-07T11:53:46.812Z,41.61
2016-09-07T11:54:47.136Z,41.51
2016-09-07T11:55:47.143Z,41.61
2016-09-07T11:56:47.151Z,41.89
2016-09-07T11:57:46.846Z,41.89
2016-09-07T11:58:46.857Z,41.8
2016-09-07T11:59:47.178Z,41.8
2016-09-07T12:00:46.869Z,41.41
2016-09-07T12:01:46.881Z,41.68
2016-09-07T12:02:47.203Z,41.8
2016-09-07T12:03:47.221Z,41.51
2016-09-07T12:04:48.167Z,41.39
2016-09-07T12:05:46.913Z,41.51
2016-09-07T12:06:47.234Z,41.02
2016-09-07T12:07:47.239Z,41.8
2016-09-07T12:08:47.250Z,41.22
2016-09-07T12:09:46.943Z,41.31
2016-09-07T12:10:47.005Z,41.7
2016-09-07T12:11:46.963Z,41.7
2016-09-07T12:12:46.968Z,41.22
2016-09-07T12:13:46.976Z,41.8
2016-09-07T12:14:47.298Z,40.92
2016-09-07T12:15:48.209Z,41.31
2016-09-07T12:16:47.006Z,41.7
2016-09-07T12:17:47.109Z,41.22
2016-09-07T12:18:47.017Z,41.51
2016-09-07T12:19:47.339Z,41.89
2016-09-07T12:20:47.345Z,41.22
2016-09-07T12:21:47.355Z,41.89
2016-09-07T12:22:47.463Z,41.89
2016-09-07T12:23:47.059Z,42.09
2016-09-07T12:24:47.379Z,42.09
2016-09-07T12:25:47.386Z,42.67
2016-09-07T12:26:48.144Z,41.7
2016-09-07T12:27:47.401Z,42.19
2016-09-07T12:28:47.099Z,41.89
2016-09-07T12:29:47.417Z,42.67
2016-09-07T12:30:47.426Z,41.89
2016-09-07T12:31:47.435Z,41.61
2016-09-07T12:32:47.180Z,41.89
2016-09-07T12:33:47.454Z,41.8
2016-09-07T12:34:47.457Z,41.89
2016-09-07T12:35:47.467Z,41.99
2016-09-07T12:36:47.169Z,41.51
2016-09-07T12:37:47.819Z,41.51
2016-09-07T12:38:47.492Z,41.89
2016-09-07T12:39:47.187Z,42.09
2016-09-07T12:40:47.191Z,41.7
2016-09-07T12:41:47.252Z,41.99
2016-09-07T12:42:47.522Z,41.89
2016-09-07T12:43:47.531Z,42.19
2016-09-07T12:44:47.227Z,41.99
2016-09-07T12:45:47.550Z,41.7
2016-09-07T12:46:47.604Z,41.89
2016-09-07T12:47:47.564Z,41.8
2016-09-07T12:48:48.108Z,41.41
2016-09-07T12:49:47.588Z,41.22
2016-09-07T12:50:47.585Z,41.61
2016-09-07T12:51:47.595Z,41.7
2016-09-07T12:52:47.601Z,42.09
2016-09-07T12:53:47.611Z,41.61
2016-09-07T12:54:47.361Z,41.41
2016-09-07T12:55:47.684Z,41.7
2016-09-07T12:56:47.321Z,41.51
2016-09-07T12:57:47.330Z,41.61